sensor_id;sensor_type;location;lat;lon;timestamp;P1;durP1;ratioP1;P2;durP2;ratioP2
21825;SDS011;11075;47.944;11.776;2023-04-25T00:02:12;1.87;;;1.63;;
21825;SDS011;11075;47.944;11.776;2023-04-25T00:04:39;1.57;;;1.47;;
21825;SDS011;11075;47.944;11.776;2023-04-25T00:07:07;1.60;;;1.40;;
21825;SDS011;11075;47.944;11.776;2023-04-25T00:09:33;3.13;;;1.83;;
21825;SDS011;11075;47.944;11.776;2023-04-25T00:12:00;1.93;;;1.67;;
21825;SDS011;11075;47.944;11.776;2023-04-25T00:14:28;4.83;;;1.77;;
21825;SDS011;11075;47.944;11.776;2023-04-25T00:16:55;2.00;;;1.63;;
21825;SDS011;11075;47.944;11.776;2023-04-25T00:19:22;2.07;;;1.60;;
21825;SDS011;11075;47.944;11.776;2023-04-25T00:21:49;2.03;;;1.33;;
21825;SDS011;11075;47.944;11.776;2023-04-25T00:24:16;4.30;;;1.80;;
21825;SDS011;11075;47.944;11.776;2023-04-25T00:26:43;3.07;;;1.80;;
21825;SDS011;11075;47.944;11.776;2023-04-25T00:29:10;2.10;;;1.83;;
21825;SDS011;11075;47.944;11.776;2023-04-25T00:31:37;2.63;;;1.43;;
21825;SDS011;11075;47.944;11.776;2023-04-25T00:34:05;2.03;;;1.77;;
21825;SDS011;11075;47.944;11.776;2023-04-25T00:36:34;1.70;;;1.60;;
21825;SDS011;11075;47.944;11.776;2023-04-25T00:39:01;2.40;;;1.90;;
21825;SDS011;11075;47.944;11.776;2023-04-25T00:41:29;1.93;;;1.70;;
21825;SDS011;11075;47.944;11.776;2023-04-25T00:43:57;3.00;;;1.73;;
21825;SDS011;11075;47.944;11.776;2023-04-25T00:46:25;2.30;;;1.67;;
21825;SDS011;11075;47.944;11.776;2023-04-25T00:48:52;3.53;;;1.80;;
21825;SDS011;11075;47.944;11.776;2023-04-25T00:51:20;3.10;;;1.90;;
21825;SDS011;11075;47.944;11.776;2023-04-25T00:53:48;9.43;;;2.10;;
21825;SDS011;11075;47.944;11.776;2023-04-25T00:56:17;4.43;;;1.83;;
21825;SDS011;11075;47.944;11.776;2023-04-25T00:58:44;2.00;;;1.80;;
21825;SDS011;11075;47.944;11.776;2023-04-25T01:01:12;3.57;;;1.60;;
21825;SDS011;11075;47.944;11.776;2023-04-25T01:03:39;2.90;;;1.93;;
21825;SDS011;11075;47.944;11.776;2023-04-25T01:06:08;2.03;;;1.80;;
21825;SDS011;11075;47.944;11.776;2023-04-25T01:08:37;3.27;;;1.90;;
21825;SDS011;11075;47.944;11.776;2023-04-25T01:11:05;2.33;;;1.77;;
21825;SDS011;11075;47.944;11.776;2023-04-25T01:13:33;5.20;;;1.93;;
21825;SDS011;11075;47.944;11.776;2023-04-25T01:16:01;2.03;;;1.80;;
21825;SDS011;11075;47.944;11.776;2023-04-25T01:18:29;4.60;;;2.20;;
21825;SDS011;11075;47.944;11.776;2023-04-25T01:20:55;1.90;;;1.70;;
21825;SDS011;11075;47.944;11.776;2023-04-25T01:23:31;2.80;;;1.70;;
21825;SDS011;11075;47.944;11.776;2023-04-25T01:26:00;2.07;;;1.87;;
21825;SDS011;11075;47.944;11.776;2023-04-25T01:28:28;5.40;;;2.00;;
21825;SDS011;11075;47.944;11.776;2023-04-25T01:30:56;5.23;;;2.00;;
21825;SDS011;11075;47.944;11.776;2023-04-25T01:33:24;2.33;;;2.10;;
21825;SDS011;11075;47.944;11.776;2023-04-25T01:35:51;2.87;;;1.90;;
21825;SDS011;11075;47.944;11.776;2023-04-25T01:38:19;2.73;;;2.20;;
21825;SDS011;11075;47.944;11.776;2023-04-25T01:40:46;3.90;;;2.30;;
21825;SDS011;11075;47.944;11.776;2023-04-25T01:43:18;2.80;;;2.20;;
21825;SDS011;11075;47.944;11.776;2023-04-25T01:45:45;4.00;;;2.30;;
21825;SDS011;11075;47.944;11.776;2023-04-25T01:48:13;2.50;;;1.70;;
21825;SDS011;11075;47.944;11.776;2023-04-25T01:50:42;1.93;;;1.80;;
21825;SDS011;11075;47.944;11.776;2023-04-25T01:53:10;2.27;;;1.90;;
21825;SDS011;11075;47.944;11.776;2023-04-25T01:55:42;2.40;;;2.17;;
21825;SDS011;11075;47.944;11.776;2023-04-25T01:58:13;3.53;;;1.87;;
21825;SDS011;11075;47.944;11.776;2023-04-25T02:01:18;3.07;;;2.03;;
21825;SDS011;11075;47.944;11.776;2023-04-25T02:03:57;3.03;;;2.37;;
21825;SDS011;11075;47.944;11.776;2023-04-25T02:06:31;4.27;;;1.93;;
21825;SDS011;11075;47.944;11.776;2023-04-25T02:08:58;3.40;;;2.30;;
21825;SDS011;11075;47.944;11.776;2023-04-25T02:11:25;2.07;;;1.83;;
21825;SDS011;11075;47.944;11.776;2023-04-25T02:14:12;2.20;;;1.90;;
21825;SDS011;11075;47.944;11.776;2023-04-25T02:16:45;2.80;;;2.00;;
21825;SDS011;11075;47.944;11.776;2023-04-25T02:19:13;3.37;;;2.67;;
21825;SDS011;11075;47.944;11.776;2023-04-25T02:21:40;8.13;;;2.20;;
21825;SDS011;11075;47.944;11.776;2023-04-25T02:24:07;2.87;;;2.10;;
21825;SDS011;11075;47.944;11.776;2023-04-25T02:26:34;2.50;;;2.00;;
21825;SDS011;11075;47.944;11.776;2023-04-25T02:29:01;3.00;;;2.07;;
21825;SDS011;11075;47.944;11.776;2023-04-25T02:31:28;2.30;;;2.10;;
21825;SDS011;11075;47.944;11.776;2023-04-25T02:33:56;4.43;;;2.00;;
21825;SDS011;11075;47.944;11.776;2023-04-25T02:36:24;4.10;;;1.80;;
21825;SDS011;11075;47.944;11.776;2023-04-25T02:38:50;2.47;;;1.87;;
21825;SDS011;11075;47.944;11.776;2023-04-25T02:41:19;2.40;;;2.07;;
21825;SDS011;11075;47.944;11.776;2023-04-25T02:43:47;8.40;;;2.20;;
21825;SDS011;11075;47.944;11.776;2023-04-25T02:46:17;4.77;;;2.20;;
21825;SDS011;11075;47.944;11.776;2023-04-25T02:48:58;4.10;;;2.03;;
21825;SDS011;11075;47.944;11.776;2023-04-25T02:51:25;2.10;;;1.70;;
21825;SDS011;11075;47.944;11.776;2023-04-25T02:53:52;3.00;;;1.47;;
21825;SDS011;11075;47.944;11.776;2023-04-25T02:56:19;3.10;;;2.30;;
21825;SDS011;11075;47.944;11.776;2023-04-25T02:58:47;5.33;;;2.20;;
21825;SDS011;11075;47.944;11.776;2023-04-25T03:01:14;4.77;;;1.90;;
21825;SDS011;11075;47.944;11.776;2023-04-25T03:03:41;2.10;;;1.80;;
21825;SDS011;11075;47.944;11.776;2023-04-25T03:06:08;3.73;;;2.20;;
21825;SDS011;11075;47.944;11.776;2023-04-25T03:08:35;2.20;;;2.00;;
21825;SDS011;11075;47.944;11.776;2023-04-25T03:11:02;4.60;;;2.20;;
21825;SDS011;11075;47.944;11.776;2023-04-25T03:13:30;3.40;;;2.37;;
21825;SDS011;11075;47.944;11.776;2023-04-25T03:15:57;2.00;;;1.80;;
21825;SDS011;11075;47.944;11.776;2023-04-25T03:18:24;2.07;;;1.90;;
21825;SDS011;11075;47.944;11.776;2023-04-25T03:20:53;3.33;;;1.80;;
21825;SDS011;11075;47.944;11.776;2023-04-25T03:23:20;2.60;;;1.93;;
21825;SDS011;11075;47.944;11.776;2023-04-25T03:25:47;2.83;;;2.40;;
21825;SDS011;11075;47.944;11.776;2023-04-25T03:28:14;6.33;;;2.47;;
21825;SDS011;11075;47.944;11.776;2023-04-25T03:30:41;8.40;;;2.37;;
21825;SDS011;11075;47.944;11.776;2023-04-25T03:33:09;2.53;;;2.13;;
21825;SDS011;11075;47.944;11.776;2023-04-25T03:35:35;6.30;;;2.00;;
21825;SDS011;11075;47.944;11.776;2023-04-25T03:38:02;6.47;;;2.00;;
21825;SDS011;11075;47.944;11.776;2023-04-25T03:40:34;4.47;;;2.17;;
21825;SDS011;11075;47.944;11.776;2023-04-25T03:43:27;3.77;;;2.17;;
21825;SDS011;11075;47.944;11.776;2023-04-25T03:46:00;2.17;;;1.80;;
21825;SDS011;11075;47.944;11.776;2023-04-25T03:48:27;3.27;;;1.57;;
21825;SDS011;11075;47.944;11.776;2023-04-25T03:50:54;4.00;;;1.70;;
21825;SDS011;11075;47.944;11.776;2023-04-25T03:53:21;3.60;;;1.50;;
21825;SDS011;11075;47.944;11.776;2023-04-25T03:56:17;5.97;;;2.43;;
21825;SDS011;11075;47.944;11.776;2023-04-25T03:58:46;3.67;;;1.90;;
21825;SDS011;11075;47.944;11.776;2023-04-25T04:01:15;5.23;;;1.67;;
21825;SDS011;11075;47.944;11.776;2023-04-25T04:03:41;2.77;;;1.47;;
21825;SDS011;11075;47.944;11.776;2023-04-25T04:06:09;4.27;;;1.77;;
21825;SDS011;11075;47.944;11.776;2023-04-25T04:08:43;3.03;;;1.57;;
21825;SDS011;11075;47.944;11.776;2023-04-25T04:11:10;4.03;;;1.80;;
21825;SDS011;11075;47.944;11.776;2023-04-25T04:13:37;2.77;;;2.10;;
21825;SDS011;11075;47.944;11.776;2023-04-25T04:16:05;4.37;;;2.37;;
21825;SDS011;11075;47.944;11.776;2023-04-25T04:18:33;2.33;;;1.80;;
21825;SDS011;11075;47.944;11.776;2023-04-25T04:21:00;3.70;;;2.30;;
21825;SDS011;11075;47.944;11.776;2023-04-25T04:23:30;2.87;;;1.90;;
21825;SDS011;11075;47.944;11.776;2023-04-25T04:25:58;5.43;;;2.20;;
21825;SDS011;11075;47.944;11.776;2023-04-25T04:28:49;6.23;;;2.10;;
21825;SDS011;11075;47.944;11.776;2023-04-25T04:31:50;3.63;;;1.70;;
21825;SDS011;11075;47.944;11.776;2023-04-25T04:34:19;3.50;;;2.30;;
21825;SDS011;11075;47.944;11.776;2023-04-25T04:36:46;3.43;;;2.30;;
21825;SDS011;11075;47.944;11.776;2023-04-25T04:39:14;4.00;;;2.17;;
21825;SDS011;11075;47.944;11.776;2023-04-25T04:41:52;2.87;;;2.10;;
21825;SDS011;11075;47.944;11.776;2023-04-25T04:44:37;3.53;;;2.00;;
21825;SDS011;11075;47.944;11.776;2023-04-25T04:47:24;3.53;;;1.80;;
21825;SDS011;11075;47.944;11.776;2023-04-25T04:50:11;2.53;;;2.07;;
21825;SDS011;11075;47.944;11.776;2023-04-25T04:53:00;4.57;;;2.00;;
21825;SDS011;11075;47.944;11.776;2023-04-25T04:55:44;2.93;;;2.20;;
21825;SDS011;11075;47.944;11.776;2023-04-25T04:58:31;7.10;;;2.77;;
21825;SDS011;11075;47.944;11.776;2023-04-25T05:01:19;3.17;;;2.50;;
21825;SDS011;11075;47.944;11.776;2023-04-25T05:04:05;5.43;;;1.93;;
21825;SDS011;11075;47.944;11.776;2023-04-25T05:06:52;3.87;;;2.00;;
21825;SDS011;11075;47.944;11.776;2023-04-25T05:09:38;4.77;;;2.00;;
21825;SDS011;11075;47.944;11.776;2023-04-25T05:12:05;3.67;;;2.77;;
21825;SDS011;11075;47.944;11.776;2023-04-25T05:14:45;2.57;;;1.73;;
21825;SDS011;11075;47.944;11.776;2023-04-25T05:17:31;2.73;;;1.80;;
21825;SDS011;11075;47.944;11.776;2023-04-25T05:19:59;2.03;;;1.70;;
21825;SDS011;11075;47.944;11.776;2023-04-25T05:22:50;4.93;;;2.33;;
21825;SDS011;11075;47.944;11.776;2023-04-25T05:25:40;3.53;;;2.20;;
21825;SDS011;11075;47.944;11.776;2023-04-25T05:28:33;2.77;;;2.10;;
21825;SDS011;11075;47.944;11.776;2023-04-25T05:31:23;2.23;;;1.83;;
21825;SDS011;11075;47.944;11.776;2023-04-25T05:34:01;3.60;;;1.87;;
21825;SDS011;11075;47.944;11.776;2023-04-25T05:36:39;2.03;;;1.83;;
21825;SDS011;11075;47.944;11.776;2023-04-25T05:39:06;3.97;;;1.87;;
21825;SDS011;11075;47.944;11.776;2023-04-25T05:42:01;2.80;;;1.87;;
21825;SDS011;11075;47.944;11.776;2023-04-25T05:45:01;2.43;;;1.77;;
21825;SDS011;11075;47.944;11.776;2023-04-25T05:47:50;4.03;;;1.60;;
21825;SDS011;11075;47.944;11.776;2023-04-25T05:50:27;2.63;;;1.90;;
21825;SDS011;11075;47.944;11.776;2023-04-25T05:52:59;5.03;;;1.90;;
21825;SDS011;11075;47.944;11.776;2023-04-25T05:55:29;4.20;;;1.90;;
21825;SDS011;11075;47.944;11.776;2023-04-25T05:57:58;1.80;;;1.57;;
21825;SDS011;11075;47.944;11.776;2023-04-25T06:00:26;2.47;;;1.97;;
21825;SDS011;11075;47.944;11.776;2023-04-25T06:02:53;3.80;;;1.73;;
21825;SDS011;11075;47.944;11.776;2023-04-25T06:05:20;2.27;;;1.90;;
21825;SDS011;11075;47.944;11.776;2023-04-25T06:07:48;4.03;;;2.33;;
21825;SDS011;11075;47.944;11.776;2023-04-25T06:10:15;5.67;;;1.93;;
21825;SDS011;11075;47.944;11.776;2023-04-25T06:12:42;7.23;;;1.90;;
21825;SDS011;11075;47.944;11.776;2023-04-25T06:15:09;7.40;;;1.80;;
21825;SDS011;11075;47.944;11.776;2023-04-25T06:17:53;2.23;;;1.60;;
21825;SDS011;11075;47.944;11.776;2023-04-25T06:20:21;2.83;;;1.90;;
21825;SDS011;11075;47.944;11.776;2023-04-25T06:22:50;4.73;;;2.00;;
21825;SDS011;11075;47.944;11.776;2023-04-25T06:25:20;4.97;;;1.70;;
21825;SDS011;11075;47.944;11.776;2023-04-25T06:27:48;3.17;;;1.60;;
21825;SDS011;11075;47.944;11.776;2023-04-25T06:30:15;3.73;;;1.90;;
21825;SDS011;11075;47.944;11.776;2023-04-25T06:32:45;7.00;;;1.90;;
21825;SDS011;11075;47.944;11.776;2023-04-25T06:35:12;4.13;;;2.03;;
21825;SDS011;11075;47.944;11.776;2023-04-25T06:37:40;2.47;;;1.90;;
21825;SDS011;11075;47.944;11.776;2023-04-25T06:40:07;2.70;;;1.77;;
21825;SDS011;11075;47.944;11.776;2023-04-25T06:42:34;2.87;;;1.80;;
21825;SDS011;11075;47.944;11.776;2023-04-25T06:45:21;4.23;;;2.10;;
21825;SDS011;11075;47.944;11.776;2023-04-25T06:47:48;6.07;;;2.80;;
21825;SDS011;11075;47.944;11.776;2023-04-25T06:50:15;2.80;;;2.00;;
21825;SDS011;11075;47.944;11.776;2023-04-25T06:52:41;4.00;;;2.03;;
21825;SDS011;11075;47.944;11.776;2023-04-25T06:55:08;5.18;;;2.30;;
21825;SDS011;11075;47.944;11.776;2023-04-25T06:57:52;4.28;;;1.83;;
21825;SDS011;11075;47.944;11.776;2023-04-25T07:00:57;5.28;;;1.80;;
21825;SDS011;11075;47.944;11.776;2023-04-25T07:03:25;3.47;;;2.35;;
21825;SDS011;11075;47.944;11.776;2023-04-25T07:05:57;3.57;;;2.40;;
21825;SDS011;11075;47.944;11.776;2023-04-25T07:08:24;3.63;;;2.43;;
21825;SDS011;11075;47.944;11.776;2023-04-25T07:10:51;3.53;;;2.60;;
21825;SDS011;11075;47.944;11.776;2023-04-25T07:13:18;9.17;;;3.00;;
21825;SDS011;11075;47.944;11.776;2023-04-25T07:15:46;6.03;;;3.03;;
21825;SDS011;11075;47.944;11.776;2023-04-25T07:18:16;3.40;;;2.83;;
21825;SDS011;11075;47.944;11.776;2023-04-25T07:20:43;7.70;;;2.50;;
21825;SDS011;11075;47.944;11.776;2023-04-25T07:23:11;3.67;;;2.53;;
21825;SDS011;11075;47.944;11.776;2023-04-25T07:25:38;4.87;;;2.40;;
21825;SDS011;11075;47.944;11.776;2023-04-25T07:28:06;5.93;;;2.70;;
21825;SDS011;11075;47.944;11.776;2023-04-25T07:30:34;3.93;;;2.30;;
21825;SDS011;11075;47.944;11.776;2023-04-25T07:33:02;3.92;;;2.30;;
21825;SDS011;11075;47.944;11.776;2023-04-25T07:35:30;5.20;;;1.85;;
21825;SDS011;11075;47.944;11.776;2023-04-25T07:37:58;6.40;;;2.17;;
21825;SDS011;11075;47.944;11.776;2023-04-25T07:40:26;3.03;;;2.13;;
21825;SDS011;11075;47.944;11.776;2023-04-25T07:42:58;2.80;;;2.10;;
21825;SDS011;11075;47.944;11.776;2023-04-25T07:45:37;3.35;;;1.90;;
21825;SDS011;11075;47.944;11.776;2023-04-25T07:48:04;5.55;;;1.88;;
21825;SDS011;11075;47.944;11.776;2023-04-25T07:50:35;4.00;;;1.98;;
21825;SDS011;11075;47.944;11.776;2023-04-25T07:53:01;3.42;;;2.22;;
21825;SDS011;11075;47.944;11.776;2023-04-25T07:55:35;4.32;;;1.80;;
21825;SDS011;11075;47.944;11.776;2023-04-25T07:58:11;3.15;;;1.60;;
21825;SDS011;11075;47.944;11.776;2023-04-25T08:00:40;3.60;;;2.10;;
21825;SDS011;11075;47.944;11.776;2023-04-25T08:03:26;4.10;;;1.90;;
21825;SDS011;11075;47.944;11.776;2023-04-25T08:05:54;7.43;;;1.92;;
21825;SDS011;11075;47.944;11.776;2023-04-25T08:08:23;2.63;;;1.50;;
21825;SDS011;11075;47.944;11.776;2023-04-25T08:10:50;1.70;;;1.38;;
21825;SDS011;11075;47.944;11.776;2023-04-25T08:13:17;7.35;;;1.83;;
21825;SDS011;11075;47.944;11.776;2023-04-25T08:15:44;3.90;;;1.52;;
21825;SDS011;11075;47.944;11.776;2023-04-25T08:18:12;6.10;;;1.75;;
21825;SDS011;11075;47.944;11.776;2023-04-25T08:20:43;2.97;;;1.52;;
21825;SDS011;11075;47.944;11.776;2023-04-25T08:23:11;5.25;;;1.55;;
21825;SDS011;11075;47.944;11.776;2023-04-25T08:25:59;2.45;;;1.60;;
21825;SDS011;11075;47.944;11.776;2023-04-25T08:28:28;5.15;;;1.80;;
21825;SDS011;11075;47.944;11.776;2023-04-25T08:30:57;3.40;;;1.63;;
21825;SDS011;11075;47.944;11.776;2023-04-25T08:33:27;4.00;;;1.40;;
21825;SDS011;11075;47.944;11.776;2023-04-25T08:35:59;1.92;;;1.25;;
21825;SDS011;11075;47.944;11.776;2023-04-25T08:38:27;3.95;;;1.65;;
21825;SDS011;11075;47.944;11.776;2023-04-25T08:40:54;5.55;;;1.50;;
21825;SDS011;11075;47.944;11.776;2023-04-25T08:43:25;1.08;;;1.00;;
21825;SDS011;11075;47.944;11.776;2023-04-25T08:45:52;2.00;;;1.50;;
21825;SDS011;11075;47.944;11.776;2023-04-25T08:48:32;4.22;;;1.40;;
21825;SDS011;11075;47.944;11.776;2023-04-25T08:51:03;3.25;;;1.05;;
21825;SDS011;11075;47.944;11.776;2023-04-25T08:53:37;1.63;;;0.93;;
21825;SDS011;11075;47.944;11.776;2023-04-25T08:56:09;2.38;;;1.10;;
21825;SDS011;11075;47.944;11.776;2023-04-25T08:58:39;1.60;;;1.15;;
21825;SDS011;11075;47.944;11.776;2023-04-25T09:01:07;2.60;;;1.20;;
21825;SDS011;11075;47.944;11.776;2023-04-25T09:03:43;3.63;;;1.27;;
21825;SDS011;11075;47.944;11.776;2023-04-25T09:06:11;1.65;;;1.10;;
21825;SDS011;11075;47.944;11.776;2023-04-25T09:08:38;5.10;;;1.40;;
21825;SDS011;11075;47.944;11.776;2023-04-25T09:11:07;1.20;;;0.97;;
21825;SDS011;11075;47.944;11.776;2023-04-25T09:13:35;3.00;;;1.00;;
21825;SDS011;11075;47.944;11.776;2023-04-25T09:16:10;2.07;;;1.20;;
21825;SDS011;11075;47.944;11.776;2023-04-25T09:18:47;3.17;;;1.37;;
21825;SDS011;11075;47.944;11.776;2023-04-25T09:21:15;1.37;;;1.17;;
21825;SDS011;11075;47.944;11.776;2023-04-25T09:23:45;1.97;;;1.50;;
21825;SDS011;11075;47.944;11.776;2023-04-25T09:26:15;1.85;;;1.48;;
21825;SDS011;11075;47.944;11.776;2023-04-25T09:28:44;2.35;;;1.00;;
21825;SDS011;11075;47.944;11.776;2023-04-25T09:31:21;2.03;;;1.10;;
21825;SDS011;11075;47.944;11.776;2023-04-25T09:34:00;3.88;;;1.20;;
21825;SDS011;11075;47.944;11.776;2023-04-25T09:36:36;5.50;;;1.30;;
21825;SDS011;11075;47.944;11.776;2023-04-25T09:39:20;1.75;;;1.10;;
21825;SDS011;11075;47.944;11.776;2023-04-25T09:41:57;2.40;;;0.98;;
21825;SDS011;11075;47.944;11.776;2023-04-25T09:44:24;4.30;;;1.20;;
21825;SDS011;11075;47.944;11.776;2023-04-25T09:46:53;2.05;;;1.15;;
21825;SDS011;11075;47.944;11.776;2023-04-25T09:49:25;3.05;;;1.55;;
21825;SDS011;11075;47.944;11.776;2023-04-25T09:52:01;3.97;;;1.25;;
21825;SDS011;11075;47.944;11.776;2023-04-25T09:54:45;2.47;;;1.52;;
21825;SDS011;11075;47.944;11.776;2023-04-25T09:59:48;2.20;;;1.52;;
21825;SDS011;11075;47.944;11.776;2023-04-25T10:02:17;3.08;;;1.45;;
21825;SDS011;11075;47.944;11.776;2023-04-25T10:04:52;3.67;;;1.50;;
21825;SDS011;11075;47.944;11.776;2023-04-25T10:07:38;1.88;;;1.35;;
21825;SDS011;11075;47.944;11.776;2023-04-25T10:10:12;2.05;;;1.08;;
21825;SDS011;11075;47.944;11.776;2023-04-25T10:12:39;1.42;;;1.13;;
21825;SDS011;11075;47.944;11.776;2023-04-25T10:15:09;4.68;;;1.33;;
21825;SDS011;11075;47.944;11.776;2023-04-25T10:17:37;4.85;;;1.58;;
21825;SDS011;11075;47.944;11.776;2023-04-25T10:20:05;3.05;;;1.40;;
21825;SDS011;11075;47.944;11.776;2023-04-25T10:22:46;3.83;;;1.65;;
21825;SDS011;11075;47.944;11.776;2023-04-25T10:25:15;2.83;;;1.38;;
21825;SDS011;11075;47.944;11.776;2023-04-25T10:27:42;1.60;;;1.38;;
21825;SDS011;11075;47.944;11.776;2023-04-25T10:30:10;2.15;;;1.48;;
21825;SDS011;11075;47.944;11.776;2023-04-25T10:32:42;2.47;;;1.40;;
21825;SDS011;11075;47.944;11.776;2023-04-25T10:35:13;2.67;;;1.42;;
21825;SDS011;11075;47.944;11.776;2023-04-25T10:40:34;2.95;;;1.40;;
21825;SDS011;11075;47.944;11.776;2023-04-25T10:46:23;2.47;;;1.27;;
21825;SDS011;11075;47.944;11.776;2023-04-25T10:48:51;2.38;;;1.17;;
21825;SDS011;11075;47.944;11.776;2023-04-25T10:51:28;3.17;;;1.27;;
21825;SDS011;11075;47.944;11.776;2023-04-25T10:54:19;3.53;;;1.85;;
21825;SDS011;11075;47.944;11.776;2023-04-25T10:56:48;2.03;;;0.98;;
21825;SDS011;11075;47.944;11.776;2023-04-25T10:59:16;3.78;;;1.10;;
21825;SDS011;11075;47.944;11.776;2023-04-25T11:01:45;1.73;;;1.08;;
21825;SDS011;11075;47.944;11.776;2023-04-25T11:04:23;1.75;;;1.20;;
21825;SDS011;11075;47.944;11.776;2023-04-25T11:09:35;4.53;;;1.20;;
21825;SDS011;11075;47.944;11.776;2023-04-25T11:12:04;1.60;;;0.97;;
21825;SDS011;11075;47.944;11.776;2023-04-25T11:14:33;4.37;;;1.30;;
21825;SDS011;11075;47.944;11.776;2023-04-25T11:17:00;1.87;;;1.37;;
21825;SDS011;11075;47.944;11.776;2023-04-25T11:19:29;2.07;;;1.33;;
21825;SDS011;11075;47.944;11.776;2023-04-25T11:21:57;2.37;;;1.30;;
21825;SDS011;11075;47.944;11.776;2023-04-25T11:24:34;3.30;;;1.70;;
21825;SDS011;11075;47.944;11.776;2023-04-25T11:27:02;4.00;;;1.33;;
21825;SDS011;11075;47.944;11.776;2023-04-25T11:29:32;1.97;;;1.27;;
21825;SDS011;11075;47.944;11.776;2023-04-25T11:32:01;5.20;;;1.50;;
21825;SDS011;11075;47.944;11.776;2023-04-25T11:34:29;2.57;;;1.37;;
21825;SDS011;11075;47.944;11.776;2023-04-25T11:37:00;1.93;;;1.20;;
21825;SDS011;11075;47.944;11.776;2023-04-25T11:39:29;1.60;;;1.50;;
21825;SDS011;11075;47.944;11.776;2023-04-25T11:41:56;2.63;;;1.40;;
21825;SDS011;11075;47.944;11.776;2023-04-25T11:44:23;3.50;;;1.30;;
21825;SDS011;11075;47.944;11.776;2023-04-25T11:46:50;1.80;;;1.47;;
21825;SDS011;11075;47.944;11.776;2023-04-25T11:49:17;2.30;;;1.60;;
21825;SDS011;11075;47.944;11.776;2023-04-25T11:51:45;2.10;;;1.40;;
21825;SDS011;11075;47.944;11.776;2023-04-25T11:54:14;6.40;;;2.00;;
21825;SDS011;11075;47.944;11.776;2023-04-25T11:56:42;4.47;;;2.10;;
21825;SDS011;11075;47.944;11.776;2023-04-25T11:59:10;2.17;;;1.73;;
21825;SDS011;11075;47.944;11.776;2023-04-25T12:01:40;2.40;;;1.80;;
21825;SDS011;11075;47.944;11.776;2023-04-25T12:04:15;2.97;;;2.00;;
21825;SDS011;11075;47.944;11.776;2023-04-25T12:06:44;3.83;;;2.00;;
21825;SDS011;11075;47.944;11.776;2023-04-25T12:09:17;3.67;;;1.80;;
21825;SDS011;11075;47.944;11.776;2023-04-25T12:11:53;3.60;;;1.77;;
21825;SDS011;11075;47.944;11.776;2023-04-25T12:14:26;4.70;;;2.10;;
21825;SDS011;11075;47.944;11.776;2023-04-25T12:16:57;3.33;;;1.80;;
21825;SDS011;11075;47.944;11.776;2023-04-25T12:19:36;3.43;;;2.07;;
21825;SDS011;11075;47.944;11.776;2023-04-25T12:22:19;3.27;;;1.90;;
21825;SDS011;11075;47.944;11.776;2023-04-25T12:24:48;2.03;;;1.70;;
21825;SDS011;11075;47.944;11.776;2023-04-25T12:27:16;2.27;;;1.90;;
21825;SDS011;11075;47.944;11.776;2023-04-25T12:29:52;3.20;;;2.20;;
21825;SDS011;11075;47.944;11.776;2023-04-25T12:32:21;1.60;;;1.50;;
21825;SDS011;11075;47.944;11.776;2023-04-25T12:34:48;3.73;;;2.00;;
21825;SDS011;11075;47.944;11.776;2023-04-25T12:37:16;2.70;;;1.65;;
21825;SDS011;11075;47.944;11.776;2023-04-25T12:39:42;2.47;;;1.70;;
21825;SDS011;11075;47.944;11.776;2023-04-25T12:42:09;1.60;;;1.50;;
21825;SDS011;11075;47.944;11.776;2023-04-25T12:44:39;2.53;;;1.30;;
21825;SDS011;11075;47.944;11.776;2023-04-25T12:47:07;4.97;;;1.70;;
21825;SDS011;11075;47.944;11.776;2023-04-25T12:49:35;0.90;;;0.90;;
21825;SDS011;11075;47.944;11.776;2023-04-25T12:52:01;1.20;;;0.98;;
21825;SDS011;11075;47.944;11.776;2023-04-25T12:54:28;1.50;;;0.70;;
21825;SDS011;11075;47.944;11.776;2023-04-25T12:56:55;1.73;;;0.93;;
21825;SDS011;11075;47.944;11.776;2023-04-25T12:59:23;0.77;;;0.77;;
21825;SDS011;11075;47.944;11.776;2023-04-25T13:01:50;0.65;;;0.60;;
21825;SDS011;11075;47.944;11.776;2023-04-25T13:04:17;0.52;;;0.50;;
21825;SDS011;11075;47.944;11.776;2023-04-25T13:06:44;0.50;;;0.50;;
21825;SDS011;11075;47.944;11.776;2023-04-25T13:09:11;0.98;;;0.50;;
21825;SDS011;11075;47.944;11.776;2023-04-25T13:11:39;0.88;;;0.68;;
21825;SDS011;11075;47.944;11.776;2023-04-25T13:14:07;0.50;;;0.50;;
21825;SDS011;11075;47.944;11.776;2023-04-25T13:16:34;1.85;;;0.50;;
21825;SDS011;11075;47.944;11.776;2023-04-25T13:22:19;0.70;;;0.30;;
21825;SDS011;11075;47.944;11.776;2023-04-25T13:24:46;0.47;;;0.47;;
21825;SDS011;11075;47.944;11.776;2023-04-25T13:27:13;0.60;;;0.40;;
21825;SDS011;11075;47.944;11.776;2023-04-25T13:29:40;0.50;;;0.50;;
21825;SDS011;11075;47.944;11.776;2023-04-25T13:32:08;0.80;;;0.60;;
21825;SDS011;11075;47.944;11.776;2023-04-25T13:34:36;13.73;;;1.53;;
21825;SDS011;11075;47.944;11.776;2023-04-25T13:37:02;0.93;;;0.63;;
21825;SDS011;11075;47.944;11.776;2023-04-25T13:39:30;3.23;;;0.70;;
21825;SDS011;11075;47.944;11.776;2023-04-25T13:41:56;1.07;;;0.60;;
21825;SDS011;11075;47.944;11.776;2023-04-25T13:44:24;1.93;;;0.60;;
21825;SDS011;11075;47.944;11.776;2023-04-25T13:46:51;1.67;;;0.60;;
21825;SDS011;11075;47.944;11.776;2023-04-25T13:49:18;0.50;;;0.50;;
21825;SDS011;11075;47.944;11.776;2023-04-25T13:51:45;4.03;;;0.52;;
21825;SDS011;11075;47.944;11.776;2023-04-25T13:54:12;0.83;;;0.40;;
21825;SDS011;11075;47.944;11.776;2023-04-25T13:56:40;2.10;;;0.60;;
21825;SDS011;11075;47.944;11.776;2023-04-25T13:59:08;1.67;;;0.50;;
21825;SDS011;11075;47.944;11.776;2023-04-25T14:01:36;1.10;;;0.70;;
21825;SDS011;11075;47.944;11.776;2023-04-25T14:04:03;0.60;;;0.60;;
21825;SDS011;11075;47.944;11.776;2023-04-25T14:06:33;0.60;;;0.50;;
21825;SDS011;11075;47.944;11.776;2023-04-25T14:09:00;0.40;;;0.40;;
21825;SDS011;11075;47.944;11.776;2023-04-25T14:11:28;0.70;;;0.50;;
21825;SDS011;11075;47.944;11.776;2023-04-25T14:13:55;0.47;;;0.47;;
21825;SDS011;11075;47.944;11.776;2023-04-25T14:16:22;0.50;;;0.50;;
21825;SDS011;11075;47.944;11.776;2023-04-25T14:18:49;1.07;;;0.60;;
21825;SDS011;11075;47.944;11.776;2023-04-25T14:21:17;2.20;;;0.70;;
21825;SDS011;11075;47.944;11.776;2023-04-25T14:23:44;1.03;;;0.50;;
21825;SDS011;11075;47.944;11.776;2023-04-25T14:26:13;1.97;;;0.80;;
21825;SDS011;11075;47.944;11.776;2023-04-25T14:28:39;1.53;;;0.77;;
21825;SDS011;11075;47.944;11.776;2023-04-25T14:31:06;1.23;;;0.70;;
21825;SDS011;11075;47.944;11.776;2023-04-25T14:33:33;1.80;;;0.63;;
21825;SDS011;11075;47.944;11.776;2023-04-25T14:36:02;0.73;;;0.67;;
21825;SDS011;11075;47.944;11.776;2023-04-25T14:38:29;0.50;;;0.50;;
21825;SDS011;11075;47.944;11.776;2023-04-25T14:40:56;1.43;;;0.70;;
21825;SDS011;11075;47.944;11.776;2023-04-25T14:43:23;0.50;;;0.50;;
21825;SDS011;11075;47.944;11.776;2023-04-25T14:45:50;0.80;;;0.80;;
21825;SDS011;11075;47.944;11.776;2023-04-25T14:48:17;0.93;;;0.60;;
21825;SDS011;11075;47.944;11.776;2023-04-25T14:50:46;1.40;;;0.80;;
21825;SDS011;11075;47.944;11.776;2023-04-25T14:53:13;0.50;;;0.50;;
21825;SDS011;11075;47.944;11.776;2023-04-25T14:55:40;0.80;;;0.60;;
21825;SDS011;11075;47.944;11.776;2023-04-25T14:58:07;0.60;;;0.60;;
21825;SDS011;11075;47.944;11.776;2023-04-25T15:00:34;0.60;;;0.60;;
21825;SDS011;11075;47.944;11.776;2023-04-25T15:03:02;0.77;;;0.40;;
21825;SDS011;11075;47.944;11.776;2023-04-25T15:05:29;0.67;;;0.60;;
21825;SDS011;11075;47.944;11.776;2023-04-25T15:07:56;0.60;;;0.60;;
21825;SDS011;11075;47.944;11.776;2023-04-25T15:10:23;1.07;;;0.60;;